Main page
METAR-TAF:

METAR-TAF

Airports :

Gibraltar, Gibraltar

Gibraltar International Airport

latitude: 36-09N, longitude: 005-21W, elevation: 5 m

Current weather observation

The report was made 1 hour and 13 minutes ago, at 17:50 UTC
Wind 12 kt from the Southwest
Temperature 16°C
Humidity 82%
Pressure 1022 hPa
Visibility 10 km or more

METAR: LXGB 191750Z AUTO 22012KT 9999 // NCD 16/13 Q1022

Time: 20:03 (19:03 UTC)

Forecast

The report was made 5 hours and 33 minutes ago, at 13:30 UTC
Forecast valid from 19 at 15 UTC to 19 at 22 UTC
Wind 8 kt from the West/Southwest
Visibility 10 km or more
Few clouds at a height of 3000 ft

TAF: LXGB 191330Z 1915/1922 25008KT 9999 FEW030

Weather observations and forecasts of more than 4000 airports (METAR and TAF reports).

The available stations are represented by yellow and red dots on the map.

Hover mouse over dot to see the name of the station.

Then click to see weather observations and forecasts.

To change the map : click on the green buttons with a black cross to zoom in, on the green button with a dash to zoom out, or on the green arrows for adjacent maps.


METAR-TAF: